Time;durP1;ratioP1;P1;durP2;ratioP2;P2;SDS_P1;SDS_P2;PMS_P1;PMS_P2;Temp;Humidity;BMP_temperature;BMP_pressure;BME280_temperature;BME280_humidity;BME280_pressure;Samples;Min_cycle;Max_cycle;Signal;HPM_P1;HPM_P2
2023/08/19 00:01:12;;;;;;;;;;;23.70;99.90;;;;;;5091657;28;19951;-69
2023/08/19 00:03:38;;;;;;;;;;;23.60;99.90;;;;;;5091332;28;20370;-70
2023/08/19 00:06:04;;;;;;;;;;;23.60;99.90;;;;;;5091484;28;20361;-70
2023/08/19 00:08:30;;;;;;;;;;;23.60;99.90;;;;;;5091100;28;19912;-70
2023/08/19 00:10:55;;;;;;;;;;;23.50;99.90;;;;;;5090632;28;19931;-70
2023/08/19 00:13:21;;;;;;;;;;;23.40;99.90;;;;;;5091048;28;19927;-70
2023/08/19 00:15:47;;;;;;;;;;;23.40;99.90;;;;;;5090940;28;20061;-70
2023/08/19 00:18:12;;;;;;;;;;;23.40;99.90;;;;;;5090122;28;19916;-70
2023/08/19 00:20:39;;;;;;;;;;;23.40;99.90;;;;;;5091159;28;20273;-70
2023/08/19 00:23:04;;;;;;;;;;;23.40;99.90;;;;;;5090685;28;19919;-70
2023/08/19 00:25:30;;;;;;;;;;;23.40;99.90;;;;;;5091305;28;19908;-71
2023/08/19 00:27:55;;;;;;;;;;;23.40;99.90;;;;;;5091148;28;19969;-69
2023/08/19 00:30:21;;;;;;;;;;;23.40;99.90;;;;;;5091228;28;19912;-69
2023/08/19 00:32:47;;;;;;;;;;;23.40;99.90;;;;;;5090967;28;19927;-69
2023/08/19 00:35:13;;;;;;;;;;;23.30;99.90;;;;;;5091345;28;19920;-70
2023/08/19 00:37:38;;;;;;;;;;;23.30;99.90;;;;;;5090926;28;19960;-70
2023/08/19 00:40:04;;;;;;;;;;;23.30;99.90;;;;;;5092801;28;19920;-70
2023/08/19 00:42:30;;;;;;;;;;;23.30;99.90;;;;;;5090508;28;19947;-70
2023/08/19 00:44:56;;;;;;;;;;;23.30;99.90;;;;;;5090896;28;19913;-70
2023/08/19 00:47:21;;;;;;;;;;;23.20;99.90;;;;;;5090825;28;19913;-70
2023/08/19 00:49:47;;;;;;;;;;;23.30;99.90;;;;;;5090051;28;19999;-71
2023/08/19 00:52:13;;;;;;;;;;;23.20;99.90;;;;;;5090603;28;20330;-71
2023/08/19 00:54:39;;;;;;;;;;;23.20;99.90;;;;;;5089808;28;20010;-70
2023/08/19 00:57:05;;;;;;;;;;;23.10;99.90;;;;;;5090562;28;19916;-70
2023/08/19 00:59:31;;;;;;;;;;;23.10;99.90;;;;;;5090820;28;19942;-71
2023/08/19 01:01:56;;;;;;;;;;;23.10;99.90;;;;;;5091138;28;20390;-70
2023/08/19 01:04:22;;;;;;;;;;;23.10;99.90;;;;;;5090624;28;19939;-70
2023/08/19 01:06:54;;;;;;;;;;;23.00;99.90;;;;;;5090656;28;19951;-71
2023/08/19 01:09:27;;;;;;;;;;;23.00;99.90;;;;;;5090491;28;19912;-71
2023/08/19 01:11:59;;;;;;;;;;;23.00;99.90;;;;;;5090535;28;19978;-71
2023/08/19 01:14:43;;;;;;;;;;;22.90;99.90;;;;;;5090497;28;19913;-70
2023/08/19 01:17:11;;;;;;;;;;;22.90;99.90;;;;;;5089335;28;20281;-70
2023/08/19 01:19:38;;;;;;;;;;;22.90;99.90;;;;;;5091037;28;19969;-70
2023/08/19 01:22:05;;;;;;;;;;;22.90;99.90;;;;;;5089383;28;19912;-70
2023/08/19 01:24:49;;;;;;;;;;;22.90;99.90;;;;;;5090255;28;19912;-70
2023/08/19 01:27:22;;;;;;;;;;;22.90;99.90;;;;;;5090299;28;19916;-70
2023/08/19 01:29:48;;;;;;;;;;;22.90;99.90;;;;;;5090213;28;19932;-71
2023/08/19 01:32:14;;;;;;;;;;;22.80;99.90;;;;;;5090313;28;19915;-70
2023/08/19 01:34:39;;;;;;;;;;;22.90;99.90;;;;;;5090611;28;19916;-70
2023/08/19 01:37:07;;;;;;;;;;;22.80;99.90;;;;;;5090115;28;19920;-70
2023/08/19 01:39:34;;;;;;;;;;;22.80;99.90;;;;;;5089032;28;19994;-70
2023/08/19 01:42:00;;;;;;;;;;;22.80;99.90;;;;;;5090229;28;19957;-70
2023/08/19 01:44:26;;;;;;;;;;;22.70;99.90;;;;;;5090295;28;19912;-69
2023/08/19 01:46:51;;;;;;;;;;;22.80;99.90;;;;;;5090727;28;20246;-69
2023/08/19 01:49:17;;;;;;;;;;;22.80;99.90;;;;;;5092007;28;19916;-70
2023/08/19 01:51:43;;;;;;;;;;;22.80;99.90;;;;;;5094778;28;19927;-69
2023/08/19 01:54:08;;;;;;;;;;;22.70;99.90;;;;;;5094157;28;20314;-71
2023/08/19 01:56:34;;;;;;;;;;;22.70;99.90;;;;;;5093593;28;19927;-70
2023/08/19 01:59:00;;;;;;;;;;;22.70;99.90;;;;;;5093890;28;20254;-70
2023/08/19 02:01:25;;;;;;;;;;;22.70;99.90;;;;;;5094019;28;19900;-70
2023/08/19 02:03:51;;;;;;;;;;;22.60;99.90;;;;;;5094053;28;20337;-70
2023/08/19 02:06:16;;;;;;;;;;;22.60;99.90;;;;;;5093709;28;20270;-70
2023/08/19 02:08:42;;;;;;;;;;;22.60;99.90;;;;;;5094005;28;19920;-70
2023/08/19 02:11:07;;;;;;;;;;;22.60;99.90;;;;;;5094755;28;20294;-70
2023/08/19 02:13:33;;;;;;;;;;;22.60;99.90;;;;;;5092715;28;19915;-71
2023/08/19 02:15:58;;;;;;;;;;;22.60;99.90;;;;;;5093553;28;20421;-71
2023/08/19 02:18:24;;;;;;;;;;;22.70;99.90;;;;;;5094227;28;20352;-71
2023/08/19 02:20:50;;;;;;;;;;;22.60;99.90;;;;;;5093628;28;20016;-70
2023/08/19 02:23:15;;;;;;;;;;;22.60;99.90;;;;;;5093433;28;19916;-71
2023/08/19 02:25:41;;;;;;;;;;;22.50;99.90;;;;;;5093531;28;20356;-69
2023/08/19 02:28:06;;;;;;;;;;;22.50;99.90;;;;;;5093454;28;19977;-70
2023/08/19 02:30:32;;;;;;;;;;;22.50;99.90;;;;;;5093222;28;19974;-70
2023/08/19 02:33:03;;;;;;;;;;;22.50;99.90;;;;;;5093030;28;19923;-71
2023/08/19 02:35:28;;;;;;;;;;;22.50;99.90;;;;;;5093070;28;20347;-72
2023/08/19 02:37:54;;;;;;;;;;;22.40;99.90;;;;;;5093591;28;20112;-70
2023/08/19 02:40:20;;;;;;;;;;;22.40;99.90;;;;;;5092832;28;20265;-70
2023/08/19 02:42:45;;;;;;;;;;;22.40;99.90;;;;;;5091850;28;19916;-70
2023/08/19 02:45:11;;;;;;;;;;;22.30;99.90;;;;;;5091974;28;19912;-71
2023/08/19 02:47:36;;;;;;;;;;;22.40;99.90;;;;;;5092765;28;20015;-71
2023/08/19 02:50:02;;;;;;;;;;;22.30;99.90;;;;;;5092957;28;19916;-70
2023/08/19 02:52:27;;;;;;;;;;;22.30;99.90;;;;;;5093101;28;20361;-70
2023/08/19 02:54:53;;;;;;;;;;;22.20;99.90;;;;;;5092699;28;20338;-70
2023/08/19 02:57:19;;;;;;;;;;;22.20;99.90;;;;;;5092927;28;20038;-69
2023/08/19 02:59:44;;;;;;;;;;;22.20;99.90;;;;;;5092644;28;20365;-69
2023/08/19 03:02:10;;;;;;;;;;;22.10;99.90;;;;;;5091811;28;19980;-69
2023/08/19 03:04:35;;;;;;;;;;;22.10;99.90;;;;;;5092881;28;19911;-70
2023/08/19 03:07:01;;;;;;;;;;;22.10;99.90;;;;;;5093130;28;20258;-70
2023/08/19 03:09:26;;;;;;;;;;;22.10;99.90;;;;;;5092972;28;19948;-70
2023/08/19 03:11:53;;;;;;;;;;;22.10;99.90;;;;;;5091685;28;19977;-70
2023/08/19 03:14:18;;;;;;;;;;;22.10;99.90;;;;;;5092586;28;19924;-69
2023/08/19 03:16:44;;;;;;;;;;;22.00;99.90;;;;;;5092817;28;19916;-70
2023/08/19 03:19:09;;;;;;;;;;;22.00;99.90;;;;;;5092545;28;19977;-70
2023/08/19 03:21:35;;;;;;;;;;;22.00;99.90;;;;;;5092663;28;20027;-70
2023/08/19 03:24:00;;;;;;;;;;;22.00;99.90;;;;;;5092204;28;19912;-70
2023/08/19 03:26:26;;;;;;;;;;;22.00;99.90;;;;;;5092286;28;20370;-70
2023/08/19 03:28:51;;;;;;;;;;;22.00;99.90;;;;;;5091728;28;20022;-69
2023/08/19 03:31:17;;;;;;;;;;;22.00;99.90;;;;;;5091478;28;20030;-70
2023/08/19 03:33:42;;;;;;;;;;;22.00;99.90;;;;;;5092423;28;19928;-70
2023/08/19 03:36:08;;;;;;;;;;;22.00;99.90;;;;;;5092056;28;19928;-70
2023/08/19 03:38:33;;;;;;;;;;;21.90;99.90;;;;;;5092184;28;19912;-70
2023/08/19 03:40:59;;;;;;;;;;;22.00;99.90;;;;;;5092060;28;20316;-71
2023/08/19 03:43:24;;;;;;;;;;;22.00;99.90;;;;;;5092489;28;19901;-70
2023/08/19 03:45:50;;;;;;;;;;;21.90;99.90;;;;;;5090935;28;19913;-71
2023/08/19 03:48:16;;;;;;;;;;;21.90;99.90;;;;;;5092061;28;20281;-70
2023/08/19 03:50:41;;;;;;;;;;;21.90;99.90;;;;;;5091905;28;19919;-70
2023/08/19 03:53:07;;;;;;;;;;;21.90;99.90;;;;;;5091725;28;19908;-69
2023/08/19 03:55:32;;;;;;;;;;;21.90;99.90;;;;;;5091981;28;19916;-70
2023/08/19 03:57:58;;;;;;;;;;;21.90;99.90;;;;;;5091759;28;20022;-70
2023/08/19 04:00:23;;;;;;;;;;;21.90;99.90;;;;;;5091818;28;19912;-70
2023/08/19 04:02:49;;;;;;;;;;;21.80;99.90;;;;;;5091970;28;19947;-69
2023/08/19 04:05:15;;;;;;;;;;;21.80;99.90;;;;;;5091594;28;20369;-70
2023/08/19 04:07:40;;;;;;;;;;;21.80;99.90;;;;;;5092106;28;19904;-70
2023/08/19 04:10:06;;;;;;;;;;;21.70;99.90;;;;;;5091534;28;19923;-70
2023/08/19 04:12:32;;;;;;;;;;;21.80;99.90;;;;;;5090611;28;19924;-69
2023/08/19 04:14:57;;;;;;;;;;;21.80;99.90;;;;;;5090259;28;19927;-69
2023/08/19 04:17:23;;;;;;;;;;;21.80;99.90;;;;;;5091331;28;19912;-70
2023/08/19 04:19:49;;;;;;;;;;;21.80;99.90;;;;;;5091840;28;19908;-69
2023/08/19 04:22:15;;;;;;;;;;;21.70;99.90;;;;;;5091449;28;19913;-69
2023/08/19 04:24:41;;;;;;;;;;;21.70;99.90;;;;;;5090027;28;19923;-69
2023/08/19 04:27:07;;;;;;;;;;;21.70;99.90;;;;;;5091125;28;19912;-70
2023/08/19 04:29:33;;;;;;;;;;;21.70;99.90;;;;;;5091290;28;20272;-69
2023/08/19 04:31:59;;;;;;;;;;;21.70;99.90;;;;;;5090077;28;20163;-69
2023/08/19 04:34:25;;;;;;;;;;;21.80;99.90;;;;;;5091594;28;19994;-70
2023/08/19 04:36:51;;;;;;;;;;;21.70;99.90;;;;;;5091006;28;20018;-71
2023/08/19 04:39:16;;;;;;;;;;;21.70;99.90;;;;;;5091317;28;20372;-70
2023/08/19 04:41:42;;;;;;;;;;;21.70;99.90;;;;;;5091014;28;20266;-70
2023/08/19 04:44:07;;;;;;;;;;;21.70;99.90;;;;;;5091287;28;19919;-69
2023/08/19 04:46:33;;;;;;;;;;;21.70;99.90;;;;;;5090456;28;19965;-70
2023/08/19 04:48:59;;;;;;;;;;;21.80;99.90;;;;;;5091237;28;19924;-70
2023/08/19 04:51:24;;;;;;;;;;;21.70;99.90;;;;;;5091054;28;20306;-69
2023/08/19 04:53:50;;;;;;;;;;;21.80;99.90;;;;;;5091182;28;20333;-70
2023/08/19 04:56:15;;;;;;;;;;;21.80;99.90;;;;;;5091001;28;20390;-70
2023/08/19 04:58:41;;;;;;;;;;;21.80;99.90;;;;;;5091233;28;19954;-71
2023/08/19 05:01:06;;;;;;;;;;;21.70;99.90;;;;;;5090801;28;19923;-69
2023/08/19 05:03:32;;;;;;;;;;;21.70;99.90;;;;;;5090720;28;20270;-69
2023/08/19 05:05:57;;;;;;;;;;;21.80;99.90;;;;;;5091088;28;19916;-70
2023/08/19 05:08:23;;;;;;;;;;;21.80;99.90;;;;;;5090939;28;19916;-70
2023/08/19 05:10:48;;;;;;;;;;;21.80;99.90;;;;;;5091109;28;19916;-70
2023/08/19 05:13:14;;;;;;;;;;;21.80;99.90;;;;;;5091093;28;19913;-70
2023/08/19 05:15:39;;;;;;;;;;;21.80;99.90;;;;;;5089355;28;19916;-70
2023/08/19 05:18:05;;;;;;;;;;;21.80;99.90;;;;;;5090689;28;19912;-70
2023/08/19 05:20:31;;;;;;;;;;;21.90;99.90;;;;;;5090698;28;19995;-71
2023/08/19 05:22:56;;;;;;;;;;;21.90;99.90;;;;;;5089882;28;19919;-71
2023/08/19 05:25:22;;;;;;;;;;;21.90;99.90;;;;;;5094213;28;19916;-70
2023/08/19 05:27:48;;;;;;;;;;;21.90;99.90;;;;;;5094744;28;20272;-69
2023/08/19 05:30:13;;;;;;;;;;;21.90;99.90;;;;;;5093687;28;19942;-70
2023/08/19 05:32:39;;;;;;;;;;;21.80;99.90;;;;;;5094312;28;19912;-71
2023/08/19 05:35:05;;;;;;;;;;;21.90;99.90;;;;;;5094641;28;20268;-71
2023/08/19 05:37:30;;;;;;;;;;;21.80;99.90;;;;;;5094832;28;19914;-69
2023/08/19 05:39:56;;;;;;;;;;;21.90;99.90;;;;;;5094601;28;20316;-70
2023/08/19 05:42:22;;;;;;;;;;;22.00;99.90;;;;;;5094228;28;19916;-70
2023/08/19 05:44:47;;;;;;;;;;;21.90;99.90;;;;;;5093139;28;19924;-70
2023/08/19 05:47:14;;;;;;;;;;;22.00;99.90;;;;;;5094160;28;20270;-70
2023/08/19 05:49:39;;;;;;;;;;;22.00;99.90;;;;;;5094640;28;19908;-70
2023/08/19 05:52:05;;;;;;;;;;;22.10;99.90;;;;;;5094220;28;19984;-70
2023/08/19 05:54:30;;;;;;;;;;;22.10;99.90;;;;;;5094209;28;19912;-70
2023/08/19 05:56:56;;;;;;;;;;;22.10;99.90;;;;;;5093922;28;19916;-70
2023/08/19 05:59:21;;;;;;;;;;;22.20;99.90;;;;;;5093878;28;19967;-70
2023/08/19 06:01:47;;;;;;;;;;;22.20;99.90;;;;;;5094322;28;19912;-70
2023/08/19 06:04:14;;;;;;;;;;;22.20;99.90;;;;;;5093945;28;19927;-70
2023/08/19 06:06:40;;;;;;;;;;;22.30;99.90;;;;;;5094056;28;19913;-71
2023/08/19 06:09:05;;;;;;;;;;;22.30;99.90;;;;;;5093751;28;20316;-70
2023/08/19 06:11:31;;;;;;;;;;;22.30;99.90;;;;;;5093604;28;19983;-70
2023/08/19 06:13:58;;;;;;;;;;;22.40;99.90;;;;;;5094265;28;19908;-70
2023/08/19 06:16:23;;;;;;;;;;;22.40;99.90;;;;;;5092531;28;20203;-71
2023/08/19 06:18:50;;;;;;;;;;;22.50;99.90;;;;;;5093674;28;19919;-71
2023/08/19 06:21:15;;;;;;;;;;;22.50;99.90;;;;;;5093484;28;19970;-70
2023/08/19 06:23:41;;;;;;;;;;;22.60;99.90;;;;;;5093342;28;19912;-71
2023/08/19 06:26:06;;;;;;;;;;;22.60;99.90;;;;;;5093485;28;19908;-71
2023/08/19 06:28:32;;;;;;;;;;;22.60;99.90;;;;;;5092718;28;19912;-71
2023/08/19 06:30:58;;;;;;;;;;;22.70;99.90;;;;;;5093562;28;19969;-71
2023/08/19 06:33:23;;;;;;;;;;;22.80;99.90;;;;;;5093425;28;20345;-71
2023/08/19 06:35:49;;;;;;;;;;;22.80;99.90;;;;;;5092086;28;19920;-70
2023/08/19 06:38:26;;;;;;;;;;;22.80;99.90;;;;;;5093391;28;19919;-70
2023/08/19 06:41:02;;;;;;;;;;;22.90;99.90;;;;;;5093689;28;19909;-71
2023/08/19 06:43:29;;;;;;;;;;;22.90;99.90;;;;;;5092172;28;20014;-71
2023/08/19 06:45:55;;;;;;;;;;;23.10;99.90;;;;;;5092808;28;19912;-68
2023/08/19 06:48:24;;;;;;;;;;;23.10;99.90;;;;;;5091718;28;20007;-69
2023/08/19 06:50:53;;;;;;;;;;;23.20;99.90;;;;;;5092931;28;19919;-69
2023/08/19 06:53:20;;;;;;;;;;;23.20;99.90;;;;;;5092773;28;19919;-69
2023/08/19 06:56:04;;;;;;;;;;;23.30;99.90;;;;;;5093304;28;19916;-69
2023/08/19 06:58:33;;;;;;;;;;;23.40;99.90;;;;;;5092880;28;19912;-69
2023/08/19 07:01:00;;;;;;;;;;;23.40;99.90;;;;;;5092898;28;20386;-69
2023/08/19 07:03:27;;;;;;;;;;;23.50;99.90;;;;;;5092803;28;19950;-70
2023/08/19 07:05:54;;;;;;;;;;;23.60;99.90;;;;;;5091799;28;20376;-69
2023/08/19 07:08:20;;;;;;;;;;;23.60;99.90;;;;;;5092631;28;19912;-70
2023/08/19 07:10:46;;;;;;;;;;;23.80;99.90;;;;;;5093697;28;19908;-70
2023/08/19 07:13:12;;;;;;;;;;;23.80;99.90;;;;;;5091590;28;20432;-74
2023/08/19 07:15:40;;;;;;;;;;;23.90;99.90;;;;;;5092723;28;19924;-74
2023/08/19 07:18:07;;;;;;;;;;;24.00;99.90;;;;;;5092595;28;19991;-74
2023/08/19 07:20:32;;;;;;;;;;;24.10;99.90;;;;;;5092511;28;20294;-73
2023/08/19 07:22:59;;;;;;;;;;;24.20;99.90;;;;;;5092559;28;19966;-73
2023/08/19 07:25:25;;;;;;;;;;;24.30;99.90;;;;;;5093154;28;19958;-73
2023/08/19 07:27:50;;;;;;;;;;;24.40;99.90;;;;;;5092189;28;19920;-74
2023/08/19 07:30:16;;;;;;;;;;;24.50;99.90;;;;;;5092322;28;20003;-74
2023/08/19 07:32:42;;;;;;;;;;;24.60;99.90;;;;;;5092126;28;19912;-73
2023/08/19 07:35:08;;;;;;;;;;;24.60;99.90;;;;;;5092127;28;20243;-74
2023/08/19 07:37:34;;;;;;;;;;;24.60;99.90;;;;;;5091495;28;19911;-74
2023/08/19 07:39:59;;;;;;;;;;;24.80;99.90;;;;;;5092187;28;19919;-72
2023/08/19 07:42:27;;;;;;;;;;;24.90;99.90;;;;;;5092071;28;20291;-69
2023/08/19 07:44:53;;;;;;;;;;;25.00;99.90;;;;;;5091814;28;19931;-71
2023/08/19 07:47:18;;;;;;;;;;;25.10;99.90;;;;;;5091659;28;19912;-69
2023/08/19 07:49:44;;;;;;;;;;;25.20;99.90;;;;;;5092451;28;19952;-70
2023/08/19 07:52:10;;;;;;;;;;;25.30;99.90;;;;;;5090605;28;19919;-71
2023/08/19 07:54:35;;;;;;;;;;;25.50;99.90;;;;;;5091871;28;19913;-71
2023/08/19 07:57:01;;;;;;;;;;;25.60;99.90;;;;;;5091821;28;19916;-72
2023/08/19 07:59:26;;;;;;;;;;;25.70;99.90;;;;;;5091783;28;20203;-72
2023/08/19 08:01:52;;;;;;;;;;;25.90;99.90;;;;;;5092011;28;19938;-74
2023/08/19 08:04:18;;;;;;;;;;;26.00;99.90;;;;;;5091830;28;19916;-71
2023/08/19 08:06:47;;;;;;;;;;;26.10;99.90;;;;;;5090452;28;19923;-71
2023/08/19 08:09:13;;;;;;;;;;;26.20;99.90;;;;;;5091837;28;19920;-71
2023/08/19 08:11:39;;;;;;;;;;;26.40;99.90;;;;;;5090444;28;19931;-72
2023/08/19 08:14:05;;;;;;;;;;;26.50;99.90;;;;;;5090269;28;19960;-72
2023/08/19 08:16:30;;;;;;;;;;;26.70;99.90;;;;;;5090687;28;20327;-73
2023/08/19 08:18:57;;;;;;;;;;;26.80;99.90;;;;;;5091436;28;19924;-72
2023/08/19 08:21:22;;;;;;;;;;;27.00;99.90;;;;;;5091362;28;20006;-72
2023/08/19 08:23:49;;;;;;;;;;;27.30;99.90;;;;;;5091124;28;20006;-73
2023/08/19 08:26:15;;;;;;;;;;;27.60;99.90;;;;;;5090384;28;19908;-73
2023/08/19 08:28:41;;;;;;;;;;;28.40;99.90;;;;;;5091697;28;19973;-72
2023/08/19 08:31:07;;;;;;;;;;;29.30;99.90;;;;;;5091347;28;19962;-72
2023/08/19 08:33:33;;;;;;;;;;;30.10;99.50;;;;;;5089857;28;20273;-72
2023/08/19 08:36:00;;;;;;;;;;;30.90;98.10;;;;;;5091463;28;19930;-73
2023/08/19 08:38:26;;;;;;;;;;;31.90;97.70;;;;;;5091232;28;19922;-73
2023/08/19 08:40:52;;;;;;;;;;;32.40;95.90;;;;;;5091840;28;19994;-71
2023/08/19 08:43:17;;;;;;;;;;;33.20;95.10;;;;;;5091173;28;19974;-72
2023/08/19 08:45:44;;;;;;;;;;;33.80;94.80;;;;;;5090009;28;20341;-71
2023/08/19 08:48:10;;;;;;;;;;;34.20;92.90;;;;;;5091159;28;19913;-72
2023/08/19 08:50:36;;;;;;;;;;;34.80;93.00;;;;;;5091178;28;19912;-72
2023/08/19 08:53:01;;;;;;;;;;;35.60;91.40;;;;;;5090871;28;19909;-72
2023/08/19 08:55:27;;;;;;;;;;;35.60;91.50;;;;;;5091239;28;19912;-72
2023/08/19 08:57:54;;;;;;;;;;;36.10;90.70;;;;;;5090787;28;19961;-71
2023/08/19 09:00:19;;;;;;;;;;;36.30;89.40;;;;;;5090596;28;20340;-72
2023/08/19 09:02:45;;;;;;;;;;;37.00;87.00;;;;;;5090930;28;19920;-73
2023/08/19 09:05:12;;;;;;;;;;;36.80;86.70;;;;;;5090969;28;20356;-72
2023/08/19 09:07:41;;;;;;;;;;;36.60;85.50;;;;;;5090278;28;20006;-73
2023/08/19 09:10:18;;;;;;;;;;;36.90;86.20;;;;;;5090989;28;19912;-72
2023/08/19 09:12:47;;;;;;;;;;;37.20;82.70;;;;;;5091069;28;20293;-73
2023/08/19 09:15:13;;;;;;;;;;;38.30;82.50;;;;;;5090709;28;19916;-72
2023/08/19 09:17:39;;;;;;;;;;;38.70;80.80;;;;;;5090777;28;20146;-71
2023/08/19 09:20:06;;;;;;;;;;;39.00;79.60;;;;;;5090651;28;19909;-72
2023/08/19 09:22:31;;;;;;;;;;;39.00;78.00;;;;;;5091537;28;19904;-73
2023/08/19 09:24:57;;;;;;;;;;;39.20;74.60;;;;;;5090681;28;19923;-72
2023/08/19 09:27:27;;;;;;;;;;;39.30;75.60;;;;;;5089470;28;19920;-72
2023/08/19 09:29:53;;;;;;;;;;;39.90;77.20;;;;;;5090767;28;20344;-71
2023/08/19 09:32:31;;;;;;;;;;;39.70;72.20;;;;;;5090481;28;20284;-73
2023/08/19 09:35:04;;;;;;;;;;;39.60;72.80;;;;;;5090219;28;19968;-72
2023/08/19 09:37:31;;;;;;;;;;;39.00;73.60;;;;;;5090861;28;19924;-73
2023/08/19 09:39:56;;;;;;;;;;;38.90;74.10;;;;;;5090668;28;19912;-72
2023/08/19 09:42:22;;;;;;;;;;;39.40;72.70;;;;;;5090726;28;19927;-72
2023/08/19 09:44:48;;;;;;;;;;;39.70;71.80;;;;;;5090577;28;20359;-72
2023/08/19 09:47:13;;;;;;;;;;;40.20;70.70;;;;;;5090481;28;20392;-71
2023/08/19 09:49:39;;;;;;;;;;;40.70;68.10;;;;;;5090856;28;20242;-72
2023/08/19 09:52:05;;;;;;;;;;;40.70;69.50;;;;;;5090552;28;19965;-70
2023/08/19 09:54:30;;;;;;;;;;;41.00;67.70;;;;;;5090393;28;20374;-71
2023/08/19 09:56:56;;;;;;;;;;;41.00;64.40;;;;;;5090360;28;19951;-72
2023/08/19 09:59:23;;;;;;;;;;;40.60;65.30;;;;;;5090392;28;19912;-72
2023/08/19 10:01:50;;;;;;;;;;;40.90;65.60;;;;;;5090884;28;20007;-72
2023/08/19 10:04:16;;;;;;;;;;;40.80;63.50;;;;;;5090735;28;19923;-71
2023/08/19 10:06:43;;;;;;;;;;;41.10;65.30;;;;;;5090348;28;19912;-72
2023/08/19 10:09:10;;;;;;;;;;;41.40;63.10;;;;;;5090406;28;19916;-71
2023/08/19 10:11:36;;;;;;;;;;;41.40;62.60;;;;;;5092045;28;20017;-70
2023/08/19 10:14:04;;;;;;;;;;;41.10;61.10;;;;;;5093883;28;19908;-72
2023/08/19 10:16:32;;;;;;;;;;;41.40;61.50;;;;;;5094135;28;20264;-71
2023/08/19 10:18:59;;;;;;;;;;;40.80;60.40;;;;;;5093927;28;19927;-71
2023/08/19 10:21:25;;;;;;;;;;;40.90;61.30;;;;;;5093674;28;19995;-70
2023/08/19 10:23:50;;;;;;;;;;;41.10;60.00;;;;;;5093694;28;19970;-70
2023/08/19 10:26:17;;;;;;;;;;;40.40;60.70;;;;;;5092319;28;19930;-71
2023/08/19 10:29:00;;;;;;;;;;;40.70;61.90;;;;;;5093835;28;20587;-72
2023/08/19 10:31:26;;;;;;;;;;;41.00;60.70;;;;;;5092301;28;19912;-71
2023/08/19 10:33:53;;;;;;;;;;;40.90;60.50;;;;;;5093078;28;19920;-71
2023/08/19 10:36:19;;;;;;;;;;;40.90;60.10;;;;;;5093325;28;20334;-71
2023/08/19 10:38:51;;;;;;;;;;;40.60;59.60;;;;;;5093249;28;19977;-70
2023/08/19 10:41:27;;;;;;;;;;;40.70;60.00;;;;;;5092982;28;20440;-70
2023/08/19 10:43:54;;;;;;;;;;;40.40;60.40;;;;;;5092449;28;19916;-71
2023/08/19 10:46:23;;;;;;;;;;;40.00;59.00;;;;;;5093156;28;19912;-71
2023/08/19 10:48:49;;;;;;;;;;;39.90;58.40;;;;;;5092977;28;19923;-70
2023/08/19 10:51:18;;;;;;;;;;;39.30;59.30;;;;;;5093000;28;19920;-71
2023/08/19 10:54:04;;;;;;;;;;;39.00;59.50;;;;;;5092926;28;19919;-70
2023/08/19 10:56:30;;;;;;;;;;;38.60;59.70;;;;;;5092834;28;19927;-70
2023/08/19 10:58:56;;;;;;;;;;;38.30;60.10;;;;;;5093559;28;20014;-71
2023/08/19 11:01:23;;;;;;;;;;;37.90;60.20;;;;;;5093020;28;19992;-71
2023/08/19 11:03:48;;;;;;;;;;;37.70;60.80;;;;;;5091857;28;20012;-71
2023/08/19 11:06:14;;;;;;;;;;;37.50;60.80;;;;;;5092824;28;20094;-71
2023/08/19 11:08:43;;;;;;;;;;;37.10;60.90;;;;;;5092587;28;19974;-71
2023/08/19 11:11:13;;;;;;;;;;;36.90;61.00;;;;;;5092457;28;19912;-71
2023/08/19 11:13:39;;;;;;;;;;;36.70;61.60;;;;;;5092963;28;20329;-71
2023/08/19 11:16:05;;;;;;;;;;;36.60;61.90;;;;;;5092550;28;19916;-71
2023/08/19 11:18:30;;;;;;;;;;;36.50;62.20;;;;;;5092546;28;19919;-71
2023/08/19 11:20:56;;;;;;;;;;;36.30;62.00;;;;;;5092351;28;20006;-71
2023/08/19 11:23:25;;;;;;;;;;;36.10;60.20;;;;;;5091669;28;20231;-70
2023/08/19 11:25:50;;;;;;;;;;;35.80;61.60;;;;;;5092687;28;19940;-70
2023/08/19 11:28:17;;;;;;;;;;;35.60;62.60;;;;;;5092192;28;20110;-71
2023/08/19 11:30:42;;;;;;;;;;;35.40;61.60;;;;;;5092265;28;19912;-71
2023/08/19 11:33:08;;;;;;;;;;;35.00;61.80;;;;;;5092369;28;20350;-70
2023/08/19 11:35:43;;;;;;;;;;;34.70;63.20;;;;;;5092013;28;19985;-72
2023/08/19 11:38:12;;;;;;;;;;;34.60;63.60;;;;;;5091987;28;19943;-71
2023/08/19 11:40:37;;;;;;;;;;;34.50;62.80;;;;;;5092616;28;19908;-71
2023/08/19 11:43:10;;;;;;;;;;;34.40;62.90;;;;;;5091067;28;19920;-69
2023/08/19 11:45:40;;;;;;;;;;;34.20;63.40;;;;;;5092153;28;19913;-70
2023/08/19 11:48:06;;;;;;;;;;;34.10;64.20;;;;;;5090655;28;19912;-70
2023/08/19 11:50:34;;;;;;;;;;;33.90;63.60;;;;;;5091817;28;19920;-71
2023/08/19 11:53:03;;;;;;;;;;;33.80;63.30;;;;;;5091718;28;19908;-70
2023/08/19 11:55:29;;;;;;;;;;;33.70;65.00;;;;;;5090964;28;19912;-71
2023/08/19 11:57:55;;;;;;;;;;;33.60;65.80;;;;;;5091745;28;20268;-71
2023/08/19 12:00:24;;;;;;;;;;;33.50;65.90;;;;;;5091651;28;19969;-70
2023/08/19 12:02:49;;;;;;;;;;;33.40;66.80;;;;;;5091650;28;19939;-71
2023/08/19 12:05:22;;;;;;;;;;;33.20;67.30;;;;;;5091690;28;19908;-71
2023/08/19 12:07:48;;;;;;;;;;;33.10;66.80;;;;;;5092098;28;19912;-71
2023/08/19 12:10:13;;;;;;;;;;;33.10;67.00;;;;;;5091457;28;19947;-71
2023/08/19 12:12:42;;;;;;;;;;;32.90;68.80;;;;;;5091364;28;19990;-71
2023/08/19 12:15:07;;;;;;;;;;;32.90;68.80;;;;;;5091472;28;19912;-70
2023/08/19 12:17:33;;;;;;;;;;;32.70;69.90;;;;;;5091373;28;20031;-70
2023/08/19 12:19:58;;;;;;;;;;;32.60;70.70;;;;;;5091368;28;19961;-70
2023/08/19 12:22:24;;;;;;;;;;;32.50;70.80;;;;;;5092061;28;20324;-71
2023/08/19 12:24:50;;;;;;;;;;;32.50;70.90;;;;;;5091049;28;19966;-70
2023/08/19 12:27:15;;;;;;;;;;;32.50;71.20;;;;;;5091277;28;19912;-71
2023/08/19 12:29:41;;;;;;;;;;;32.50;71.90;;;;;;5090007;28;19927;-71
2023/08/19 12:32:06;;;;;;;;;;;32.70;70.50;;;;;;5091742;28;19950;-70
2023/08/19 12:34:32;;;;;;;;;;;32.60;70.20;;;;;;5090711;28;20368;-71
2023/08/19 12:36:57;;;;;;;;;;;32.60;70.70;;;;;;5091116;28;19959;-70
2023/08/19 12:39:23;;;;;;;;;;;32.80;71.00;;;;;;5091207;28;19920;-71
2023/08/19 12:41:49;;;;;;;;;;;32.60;70.70;;;;;;5090062;28;19916;-71
2023/08/19 12:44:14;;;;;;;;;;;32.60;71.10;;;;;;5091019;28;19935;-71
2023/08/19 12:46:41;;;;;;;;;;;32.50;71.10;;;;;;5091241;28;20065;-71
2023/08/19 12:49:06;;;;;;;;;;;32.40;71.00;;;;;;5090787;28;20010;-71
2023/08/19 12:51:32;;;;;;;;;;;32.40;71.40;;;;;;5090903;28;19995;-71
2023/08/19 12:53:58;;;;;;;;;;;32.40;72.70;;;;;;5091545;28;20261;-70
2023/08/19 12:56:23;;;;;;;;;;;32.40;72.80;;;;;;5090979;28;19920;-71
2023/08/19 12:58:49;;;;;;;;;;;32.20;73.20;;;;;;5091772;28;20018;-71
2023/08/19 13:01:15;;;;;;;;;;;32.30;73.60;;;;;;5089868;28;20372;-71
2023/08/19 13:03:40;;;;;;;;;;;32.30;73.30;;;;;;5089764;28;19912;-70
2023/08/19 13:06:06;;;;;;;;;;;32.30;72.80;;;;;;5089796;28;19913;-70
2023/08/19 13:08:31;;;;;;;;;;;32.20;73.70;;;;;;5090713;28;20210;-71
2023/08/19 13:10:57;;;;;;;;;;;32.10;74.30;;;;;;5090624;28;19920;-72
2023/08/19 13:13:22;;;;;;;;;;;32.10;75.00;;;;;;5091234;28;19931;-70
2023/08/19 13:15:48;;;;;;;;;;;32.10;74.70;;;;;;5090602;28;19930;-72
2023/08/19 13:18:15;;;;;;;;;;;32.00;75.70;;;;;;5090535;28;20296;-71
2023/08/19 13:20:40;;;;;;;;;;;32.00;76.20;;;;;;5090835;28;19912;-71
2023/08/19 13:23:06;;;;;;;;;;;32.00;76.50;;;;;;5090478;28;19976;-70
2023/08/19 13:25:33;;;;;;;;;;;31.90;76.60;;;;;;5089852;28;20061;-71
2023/08/19 13:27:58;;;;;;;;;;;31.90;77.50;;;;;;5090986;28;20346;-71
2023/08/19 13:30:24;;;;;;;;;;;31.90;78.00;;;;;;5090709;28;19912;-73
2023/08/19 13:32:49;;;;;;;;;;;31.70;78.90;;;;;;5089331;28;20249;-71
2023/08/19 13:35:15;;;;;;;;;;;31.60;78.80;;;;;;5090577;28;19908;-71
2023/08/19 13:37:40;;;;;;;;;;;31.60;79.10;;;;;;5090962;28;19969;-71
2023/08/19 13:40:07;;;;;;;;;;;31.40;79.30;;;;;;5090258;28;19912;-71
2023/08/19 13:42:32;;;;;;;;;;;31.40;80.00;;;;;;5090391;28;19950;-71
2023/08/19 13:44:58;;;;;;;;;;;31.40;80.00;;;;;;5091353;28;19982;-72
2023/08/19 13:47:23;;;;;;;;;;;31.40;80.50;;;;;;5094120;28;19919;-70
2023/08/19 13:49:49;;;;;;;;;;;31.30;80.80;;;;;;5094731;28;19909;-71
2023/08/19 13:52:33;;;;;;;;;;;31.20;81.50;;;;;;5093101;28;20376;-72
2023/08/19 13:54:59;;;;;;;;;;;31.10;82.10;;;;;;5094374;28;19912;-72
2023/08/19 13:57:24;;;;;;;;;;;30.90;82.40;;;;;;5094041;28;20303;-71
2023/08/19 13:59:50;;;;;;;;;;;30.90;82.80;;;;;;5092868;28;19912;-71
2023/08/19 14:02:15;;;;;;;;;;;30.80;83.50;;;;;;5094019;28;19931;-70
2023/08/19 14:04:41;;;;;;;;;;;30.90;84.00;;;;;;5093465;28;19919;-70
2023/08/19 14:07:06;;;;;;;;;;;30.80;84.40;;;;;;5094009;28;19912;-72
2023/08/19 14:09:32;;;;;;;;;;;30.60;85.30;;;;;;5092701;28;19912;-71
2023/08/19 14:11:58;;;;;;;;;;;30.60;85.90;;;;;;5093819;28;19916;-71